BXS2421 LIEO-LEMH
Flight info
| Callsign | BXS2421 |
|---|---|
| Flight time | 1h 4m |
| Altitude | 33000 |
| Route | SUTAD DCT GOKMI DCT SUPUX Z924 KUPIM DCT SUXER Z924 RIPAL M603 MORSS |
| Aircraft | B738/M-SDE2E3FGHIRWXY/LB1 |
Departure
| Time | 2026-04-20 16:16 |
|---|---|
| Airport | Olbia Costa Smeralda Airport (LIEO) |
Arrival
| Time | 2026-04-20 17:20 |
|---|---|
| Airport | Menorca Airport (LEMH) |
| Time | Latitude | Longitude | Altitude | Speed | Heading |
|---|---|---|---|---|---|
| 2026-04-20 16:07 | 40.90217 | 9.51622 | 34 ft | 3 kts | 325° |
| 2026-04-20 16:08 | 40.90197 | 9.51644 | 34 ft | 4 kts | 309° |
| 2026-04-20 16:08 | 40.90185 | 9.51673 | 33 ft | 4 kts | 272° |
| 2026-04-20 16:08 | 40.90189 | 9.51696 | 34 ft | 0 kts | 235° |
| 2026-04-20 16:11 | 40.90180 | 9.51678 | 34 ft | 6 kts | 236° |
| 2026-04-20 16:11 | 40.90142 | 9.51608 | 34 ft | 11 kts | 235° |
| 2026-04-20 16:11 | 40.90097 | 9.51521 | 34 ft | 10 kts | 238° |
| 2026-04-20 16:12 | 40.90083 | 9.51493 | 34 ft | 3 kts | 223° |
| 2026-04-20 16:12 | 40.90054 | 9.51486 | 34 ft | 6 kts | 165° |
| 2026-04-20 16:12 | 40.89988 | 9.51520 | 32 ft | 15 kts | 178° |
| 2026-04-20 16:12 | 40.89886 | 9.51419 | 32 ft | 22 kts | 235° |
| 2026-04-20 16:13 | 40.89785 | 9.51229 | 32 ft | 29 kts | 237° |
| 2026-04-20 16:13 | 40.89692 | 9.51048 | 34 ft | 20 kts | 235° |
| 2026-04-20 16:13 | 40.89619 | 9.50896 | 35 ft | 20 kts | 239° |
| 2026-04-20 16:13 | 40.89544 | 9.50749 | 35 ft | 19 kts | 229° |
| 2026-04-20 16:14 | 40.89470 | 9.50608 | 34 ft | 18 kts | 239° |
| 2026-04-20 16:14 | 40.89407 | 9.50487 | 36 ft | 10 kts | 233° |
| 2026-04-20 16:14 | 40.89348 | 9.50442 | 36 ft | 10 kts | 187° |
| 2026-04-20 16:14 | 40.89285 | 9.50479 | 34 ft | 11 kts | 122° |
| 2026-04-20 16:15 | 40.89266 | 9.50574 | 29 ft | 12 kts | 95° |
| 2026-04-20 16:15 | 40.89289 | 9.50665 | 26 ft | 12 kts | 55° |
| 2026-04-20 16:15 | 40.89355 | 9.50790 | 23 ft | 37 kts | 55° |
| 2026-04-20 16:15 | 40.89647 | 9.51361 | 28 ft | 122 kts | 57° |
| 2026-04-20 16:16 | 40.90271 | 9.52556 | 183 ft | 183 kts | 55° |
| 2026-04-20 16:16 | 40.91004 | 9.53910 | 1291 ft | 176 kts | 54° |
| 2026-04-20 16:16 | 40.91667 | 9.55249 | 2454 ft | 173 kts | 53° |
| 2026-04-20 16:16 | 40.92380 | 9.56642 | 2991 ft | 193 kts | 52° |
| 2026-04-20 16:17 | 40.93232 | 9.58201 | 3252 ft | 223 kts | 52° |
| 2026-04-20 16:17 | 40.94207 | 9.59991 | 3477 ft | 245 kts | 52° |
| 2026-04-20 16:17 | 40.95217 | 9.61877 | 3913 ft | 255 kts | 53° |
| 2026-04-20 16:17 | 40.95897 | 9.63152 | 4310 ft | 257 kts | 53° |
| 2026-04-20 16:18 | 40.96904 | 9.65193 | 4891 ft | 262 kts | 65° |
| 2026-04-20 16:18 | 40.97214 | 9.67580 | 5505 ft | 267 kts | 97° |
| 2026-04-20 16:18 | 40.96549 | 9.69928 | 6032 ft | 278 kts | 130° |
| 2026-04-20 16:18 | 40.95099 | 9.71639 | 6695 ft | 283 kts | 146° |
| 2026-04-20 16:19 | 40.93469 | 9.73207 | 7405 ft | 288 kts | 146° |
| 2026-04-20 16:19 | 40.91830 | 9.74762 | 8194 ft | 292 kts | 146° |
| 2026-04-20 16:19 | 40.90175 | 9.76349 | 8986 ft | 297 kts | 146° |
| 2026-04-20 16:19 | 40.88495 | 9.77980 | 9782 ft | 302 kts | 145° |
| 2026-04-20 16:20 | 40.86782 | 9.79654 | 10400 ft | 314 kts | 145° |
| 2026-04-20 16:20 | 40.84960 | 9.81434 | 10589 ft | 339 kts | 145° |
| 2026-04-20 16:20 | 40.82801 | 9.82984 | 11036 ft | 350 kts | 167° |
| 2026-04-20 16:20 | 40.80389 | 9.83297 | 11756 ft | 347 kts | 189° |
| 2026-04-20 16:21 | 40.78046 | 9.82647 | 12578 ft | 347 kts | 198° |
| 2026-04-20 16:21 | 40.75685 | 9.81821 | 13377 ft | 351 kts | 199° |
| 2026-04-20 16:21 | 40.73317 | 9.80973 | 14133 ft | 356 kts | 199° |
| 2026-04-20 16:21 | 40.70877 | 9.80117 | 14927 ft | 359 kts | 199° |
| 2026-04-20 16:22 | 40.68447 | 9.79285 | 15731 ft | 362 kts | 198° |
| 2026-04-20 16:22 | 40.65992 | 9.78458 | 16496 ft | 366 kts | 198° |
| 2026-04-20 16:22 | 40.63504 | 9.77626 | 17254 ft | 370 kts | 198° |
| 2026-04-20 16:22 | 40.61014 | 9.76714 | 18003 ft | 372 kts | 206° |
| 2026-04-20 16:23 | 40.58822 | 9.74981 | 18673 ft | 367 kts | 225° |
| 2026-04-20 16:23 | 40.57119 | 9.72449 | 19358 ft | 365 kts | 236° |
| 2026-04-20 16:23 | 40.55539 | 9.69693 | 20027 ft | 369 kts | 236° |
| 2026-04-20 16:23 | 40.53987 | 9.66978 | 20651 ft | 374 kts | 236° |
| 2026-04-20 16:24 | 40.52397 | 9.64256 | 21283 ft | 378 kts | 236° |
| 2026-04-20 16:24 | 40.50799 | 9.61487 | 21904 ft | 380 kts | 240° |
| 2026-04-20 16:24 | 40.49737 | 9.58338 | 22511 ft | 378 kts | 257° |
| 2026-04-20 16:24 | 40.49423 | 9.54923 | 23120 ft | 379 kts | 272° |
| 2026-04-20 16:25 | 40.49556 | 9.51721 | 23672 ft | 381 kts | 275° |
| 2026-04-20 16:25 | 40.49785 | 9.48232 | 24181 ft | 384 kts | 276° |
| 2026-04-20 16:25 | 40.50021 | 9.44726 | 24720 ft | 386 kts | 276° |
| 2026-04-20 16:25 | 40.50237 | 9.41193 | 25200 ft | 389 kts | 276° |
| 2026-04-20 16:26 | 40.50432 | 9.37631 | 25715 ft | 391 kts | 275° |
| 2026-04-20 16:26 | 40.50617 | 9.34070 | 26257 ft | 391 kts | 275° |
| 2026-04-20 16:26 | 40.50951 | 9.30488 | 26942 ft | 387 kts | 285° |
| 2026-04-20 16:26 | 40.51776 | 9.27101 | 27701 ft | 382 kts | 290° |
| 2026-04-20 16:27 | 40.52653 | 9.23821 | 28409 ft | 379 kts | 290° |
| 2026-04-20 16:27 | 40.53534 | 9.20528 | 29027 ft | 378 kts | 290° |
| 2026-04-20 16:27 | 40.55256 | 9.13931 | 28978 ft | 384 kts | 289° |
| 2026-04-20 16:28 | 40.56970 | 9.07199 | 28967 ft | 378 kts | 289° |
| 2026-04-20 16:28 | 40.58642 | 9.00607 | 28965 ft | 379 kts | 289° |
| 2026-04-20 16:29 | 40.59184 | 8.97191 | 28965 ft | 383 kts | 275° |
| 2026-04-20 16:29 | 40.58996 | 8.93633 | 29377 ft | 389 kts | 261° |
| 2026-04-20 16:29 | 40.58329 | 8.90197 | 30089 ft | 386 kts | 258° |
| 2026-04-20 16:29 | 40.57578 | 8.86778 | 30715 ft | 382 kts | 257° |
| 2026-04-20 16:30 | 40.57068 | 8.84520 | 31140 ft | 379 kts | 257° |
| 2026-04-20 16:30 | 40.56308 | 8.81150 | 31699 ft | 377 kts | 257° |
| 2026-04-20 16:30 | 40.55572 | 8.77847 | 32196 ft | 376 kts | 257° |
| 2026-04-20 16:30 | 40.54848 | 8.74554 | 32672 ft | 375 kts | 258° |
| 2026-04-20 16:31 | 40.54129 | 8.71251 | 32988 ft | 377 kts | 258° |
| 2026-04-20 16:31 | 40.53411 | 8.67936 | 32986 ft | 378 kts | 258° |
| 2026-04-20 16:31 | 40.51979 | 8.61328 | 32983 ft | 373 kts | 258° |
| 2026-04-20 16:32 | 40.50556 | 8.54772 | 32994 ft | 374 kts | 258° |
| 2026-04-20 16:32 | 40.49116 | 8.48147 | 32993 ft | 375 kts | 257° |
| 2026-04-20 16:33 | 40.47673 | 8.41534 | 32987 ft | 377 kts | 257° |
| 2026-04-20 16:33 | 40.46249 | 8.35032 | 32985 ft | 377 kts | 257° |
| 2026-04-20 16:34 | 40.44798 | 8.28423 | 32999 ft | 377 kts | 257° |
| 2026-04-20 16:34 | 40.43627 | 8.21759 | 32992 ft | 372 kts | 268° |
| 2026-04-20 16:35 | 40.43292 | 8.14996 | 32985 ft | 371 kts | 269° |
| 2026-04-20 16:35 | 40.42956 | 8.08236 | 32989 ft | 371 kts | 268° |
| 2026-04-20 16:36 | 40.42584 | 8.01436 | 32999 ft | 371 kts | 268° |
| 2026-04-20 16:36 | 40.41911 | 7.94740 | 33008 ft | 373 kts | 263° |
| 2026-04-20 16:37 | 40.41021 | 7.88015 | 32996 ft | 374 kts | 263° |
| 2026-04-20 16:37 | 40.40133 | 7.81284 | 32989 ft | 374 kts | 263° |
| 2026-04-20 16:38 | 40.39258 | 7.74551 | 32994 ft | 375 kts | 263° |
| 2026-04-20 16:38 | 40.38386 | 7.67809 | 32991 ft | 375 kts | 263° |
| 2026-04-20 16:39 | 40.37506 | 7.61022 | 32998 ft | 375 kts | 263° |
| 2026-04-20 16:39 | 40.36627 | 7.54275 | 32995 ft | 375 kts | 263° |
| 2026-04-20 16:40 | 40.35744 | 7.47534 | 32994 ft | 375 kts | 263° |
| 2026-04-20 16:40 | 40.34856 | 7.40788 | 32991 ft | 375 kts | 263° |
| 2026-04-20 16:41 | 40.33968 | 7.34061 | 32990 ft | 375 kts | 263° |
| 2026-04-20 16:41 | 40.33070 | 7.27280 | 32993 ft | 375 kts | 263° |
| 2026-04-20 16:42 | 40.32184 | 7.20541 | 32990 ft | 375 kts | 263° |
| 2026-04-20 16:42 | 40.31303 | 7.13858 | 32991 ft | 375 kts | 263° |
| 2026-04-20 16:43 | 40.30412 | 7.07138 | 32990 ft | 375 kts | 263° |
| 2026-04-20 16:43 | 40.29515 | 7.00409 | 32993 ft | 375 kts | 263° |
| 2026-04-20 16:44 | 40.28607 | 6.93634 | 32994 ft | 375 kts | 263° |
| 2026-04-20 16:44 | 40.27706 | 6.86939 | 32993 ft | 375 kts | 263° |
| 2026-04-20 16:45 | 40.26789 | 6.80162 | 32991 ft | 376 kts | 263° |
| 2026-04-20 16:45 | 40.25874 | 6.73424 | 32993 ft | 376 kts | 263° |
| 2026-04-20 16:46 | 40.24956 | 6.66699 | 32992 ft | 376 kts | 263° |
| 2026-04-20 16:46 | 40.24031 | 6.59953 | 32993 ft | 376 kts | 263° |
| 2026-04-20 16:47 | 40.23105 | 6.53227 | 32988 ft | 376 kts | 263° |
| 2026-04-20 16:47 | 40.22172 | 6.46484 | 32993 ft | 376 kts | 263° |
| 2026-04-20 16:48 | 40.21237 | 6.39757 | 32987 ft | 376 kts | 262° |
| 2026-04-20 16:48 | 40.20297 | 6.33022 | 32992 ft | 376 kts | 262° |
| 2026-04-20 16:49 | 40.19376 | 6.26476 | 32974 ft | 352 kts | 263° |
| 2026-04-20 16:49 | 40.18939 | 6.23393 | 32967 ft | 340 kts | 263° |
| 2026-04-20 16:49 | 40.18517 | 6.20406 | 32968 ft | 327 kts | 263° |
| 2026-04-20 16:50 | 40.18111 | 6.17536 | 32973 ft | 315 kts | 263° |
| 2026-04-20 16:50 | 40.17720 | 6.14774 | 32964 ft | 303 kts | 263° |
| 2026-04-20 16:50 | 40.17342 | 6.12105 | 32982 ft | 298 kts | 263° |
| 2026-04-20 16:50 | 40.16963 | 6.09408 | 32999 ft | 306 kts | 263° |
| 2026-04-20 16:51 | 40.16571 | 6.06627 | 33007 ft | 317 kts | 263° |
| 2026-04-20 16:51 | 40.16166 | 6.03762 | 33004 ft | 323 kts | 263° |
| 2026-04-20 16:51 | 40.15342 | 5.98009 | 32983 ft | 321 kts | 263° |
| 2026-04-20 16:52 | 40.14524 | 5.92307 | 32978 ft | 318 kts | 263° |
| 2026-04-20 16:52 | 40.13712 | 5.86668 | 32980 ft | 314 kts | 263° |
| 2026-04-20 16:53 | 40.12920 | 5.81082 | 32981 ft | 312 kts | 263° |
| 2026-04-20 16:53 | 40.12139 | 5.75522 | 32989 ft | 311 kts | 263° |
| 2026-04-20 16:54 | 40.11350 | 5.69923 | 33000 ft | 312 kts | 263° |
| 2026-04-20 16:54 | 40.10556 | 5.64319 | 33001 ft | 315 kts | 263° |
| 2026-04-20 16:55 | 40.09753 | 5.58677 | 32998 ft | 317 kts | 263° |
| 2026-04-20 16:55 | 40.08940 | 5.52994 | 32984 ft | 320 kts | 263° |
| 2026-04-20 16:56 | 40.08119 | 5.47272 | 32987 ft | 321 kts | 263° |
| 2026-04-20 16:56 | 40.07295 | 5.41552 | 32979 ft | 321 kts | 263° |
| 2026-04-20 16:57 | 40.06469 | 5.35840 | 32986 ft | 319 kts | 263° |
| 2026-04-20 16:57 | 40.05778 | 5.31080 | 32980 ft | 318 kts | 263° |
| 2026-04-20 16:58 | 40.04954 | 5.25420 | 32977 ft | 316 kts | 263° |
| 2026-04-20 16:58 | 40.04133 | 5.19801 | 32972 ft | 315 kts | 263° |
| 2026-04-20 16:59 | 40.03288 | 5.14030 | 32990 ft | 315 kts | 263° |
| 2026-04-20 16:59 | 40.02460 | 5.08404 | 32992 ft | 316 kts | 263° |
| 2026-04-20 17:00 | 40.01207 | 4.99918 | 32990 ft | 318 kts | 263° |
| 2026-04-20 17:01 | 40.00362 | 4.94222 | 32986 ft | 321 kts | 263° |
| 2026-04-20 17:01 | 39.99509 | 4.88503 | 32985 ft | 323 kts | 263° |
| 2026-04-20 17:02 | 39.98642 | 4.82701 | 32981 ft | 323 kts | 263° |
| 2026-04-20 17:02 | 39.97777 | 4.76956 | 32979 ft | 322 kts | 261° |
| 2026-04-20 17:03 | 39.96659 | 4.71302 | 32982 ft | 322 kts | 259° |
| 2026-04-20 17:03 | 39.95488 | 4.65638 | 32978 ft | 320 kts | 259° |
| 2026-04-20 17:04 | 39.94330 | 4.60056 | 32668 ft | 321 kts | 259° |
| 2026-04-20 17:04 | 39.93747 | 4.57239 | 32228 ft | 323 kts | 258° |
| 2026-04-20 17:04 | 39.93160 | 4.54400 | 31821 ft | 324 kts | 259° |
| 2026-04-20 17:04 | 39.92471 | 4.51603 | 31424 ft | 328 kts | 246° |
| 2026-04-20 17:05 | 39.91161 | 4.49144 | 31072 ft | 334 kts | 229° |
| 2026-04-20 17:05 | 39.89319 | 4.47301 | 30773 ft | 339 kts | 212° |
| 2026-04-20 17:05 | 39.87096 | 4.46234 | 30465 ft | 343 kts | 194° |
| 2026-04-20 17:05 | 39.84707 | 4.46061 | 30142 ft | 348 kts | 176° |
| 2026-04-20 17:06 | 39.82378 | 4.46793 | 29792 ft | 350 kts | 159° |
| 2026-04-20 17:06 | 39.80260 | 4.48407 | 29430 ft | 351 kts | 141° |
| 2026-04-20 17:06 | 39.78626 | 4.50690 | 29072 ft | 350 kts | 123° |
| 2026-04-20 17:06 | 39.77548 | 4.53547 | 28698 ft | 347 kts | 105° |
| 2026-04-20 17:07 | 39.77170 | 4.56571 | 28327 ft | 343 kts | 88° |
| 2026-04-20 17:07 | 39.77497 | 4.59642 | 27946 ft | 337 kts | 69° |
| 2026-04-20 17:07 | 39.78473 | 4.62335 | 27580 ft | 331 kts | 51° |
| 2026-04-20 17:07 | 39.80009 | 4.64500 | 27137 ft | 324 kts | 34° |
| 2026-04-20 17:08 | 39.81962 | 4.66009 | 26097 ft | 332 kts | 16° |
| 2026-04-20 17:08 | 39.84220 | 4.66667 | 25179 ft | 335 kts | 359° |
| 2026-04-20 17:08 | 39.86575 | 4.66396 | 24260 ft | 338 kts | 342° |
| 2026-04-20 17:08 | 39.88745 | 4.65223 | 23341 ft | 341 kts | 325° |
| 2026-04-20 17:09 | 39.90563 | 4.63247 | 22308 ft | 342 kts | 309° |
| 2026-04-20 17:09 | 39.91947 | 4.60716 | 21315 ft | 345 kts | 300° |
| 2026-04-20 17:09 | 39.93194 | 4.58019 | 20338 ft | 348 kts | 299° |
| 2026-04-20 17:09 | 39.94308 | 4.55230 | 19386 ft | 349 kts | 289° |
| 2026-04-20 17:10 | 39.94825 | 4.52135 | 18466 ft | 349 kts | 273° |
| 2026-04-20 17:10 | 39.94632 | 4.48986 | 17460 ft | 350 kts | 257° |
| 2026-04-20 17:10 | 39.93751 | 4.46040 | 16458 ft | 352 kts | 241° |
| 2026-04-20 17:10 | 39.92244 | 4.43530 | 15483 ft | 354 kts | 224° |
| 2026-04-20 17:11 | 39.90101 | 4.41943 | 14527 ft | 359 kts | 198° |
| 2026-04-20 17:11 | 39.87617 | 4.41706 | 13596 ft | 363 kts | 173° |
| 2026-04-20 17:11 | 39.85264 | 4.42870 | 12588 ft | 366 kts | 147° |
| 2026-04-20 17:11 | 39.83499 | 4.45220 | 11616 ft | 366 kts | 122° |
| 2026-04-20 17:12 | 39.82657 | 4.48311 | 10673 ft | 364 kts | 96° |
| 2026-04-20 17:12 | 39.82897 | 4.51541 | 9722 ft | 359 kts | 70° |
| 2026-04-20 17:12 | 39.84157 | 4.54287 | 8743 ft | 354 kts | 44° |
| 2026-04-20 17:12 | 39.86178 | 4.55893 | 8342 ft | 332 kts | 16° |
| 2026-04-20 17:13 | 39.88389 | 4.56279 | 8060 ft | 312 kts | 357° |
| 2026-04-20 17:13 | 39.90401 | 4.55549 | 7730 ft | 296 kts | 328° |
| 2026-04-20 17:13 | 39.91991 | 4.53936 | 7335 ft | 286 kts | 318° |
| 2026-04-20 17:13 | 39.93433 | 4.52197 | 6925 ft | 279 kts | 317° |
| 2026-04-20 17:14 | 39.94825 | 4.50473 | 6513 ft | 274 kts | 316° |
| 2026-04-20 17:14 | 39.96189 | 4.48774 | 6094 ft | 269 kts | 316° |
| 2026-04-20 17:14 | 39.97529 | 4.47100 | 5719 ft | 263 kts | 316° |
| 2026-04-20 17:14 | 39.98830 | 4.45469 | 5369 ft | 257 kts | 316° |
| 2026-04-20 17:15 | 40.00099 | 4.43875 | 5028 ft | 251 kts | 316° |
| 2026-04-20 17:15 | 40.01347 | 4.42306 | 4674 ft | 247 kts | 316° |
| 2026-04-20 17:15 | 40.02586 | 4.40747 | 4425 ft | 249 kts | 316° |
| 2026-04-20 17:15 | 40.03842 | 4.39159 | 4190 ft | 254 kts | 312° |
| 2026-04-20 17:16 | 40.04630 | 4.37116 | 4048 ft | 255 kts | 284° |
| 2026-04-20 17:16 | 40.05112 | 4.34865 | 4025 ft | 259 kts | 288° |
| 2026-04-20 17:16 | 40.05736 | 4.32692 | 3989 ft | 254 kts | 292° |
| 2026-04-20 17:16 | 40.06382 | 4.30560 | 3980 ft | 254 kts | 283° |
| 2026-04-20 17:17 | 40.06277 | 4.28292 | 3958 ft | 254 kts | 247° |
| 2026-04-20 17:17 | 40.05161 | 4.26561 | 3968 ft | 256 kts | 212° |
| 2026-04-20 17:17 | 40.03515 | 4.25652 | 3997 ft | 258 kts | 198° |
| 2026-04-20 17:17 | 40.01747 | 4.25046 | 3538 ft | 265 kts | 192° |
| 2026-04-20 17:18 | 39.99944 | 4.24665 | 3125 ft | 261 kts | 189° |
| 2026-04-20 17:18 | 39.98197 | 4.24329 | 3017 ft | 246 kts | 190° |
| 2026-04-20 17:18 | 39.96535 | 4.24000 | 2662 ft | 242 kts | 189° |
| 2026-04-20 17:18 | 39.94808 | 4.23728 | 1685 ft | 259 kts | 187° |
| 2026-04-20 17:19 | 39.93014 | 4.23322 | 846 ft | 263 kts | 193° |
| 2026-04-20 17:19 | 39.91291 | 4.22844 | 699 ft | 242 kts | 189° |
| 2026-04-20 17:19 | 39.89745 | 4.22591 | 592 ft | 220 kts | 187° |
| 2026-04-20 17:19 | 39.88310 | 4.22290 | 419 ft | 205 kts | 191° |
| 2026-04-20 17:20 | 39.86961 | 4.22001 | 304 ft | 188 kts | 189° |
| 2026-04-20 17:20 | 39.85898 | 4.21782 | 299 ft | 99 kts | 189° |
| 2026-04-20 17:20 | 39.85476 | 4.21807 | 286 ft | 34 kts | 150° |
| 2026-04-20 17:20 | 39.85440 | 4.21830 | 283 ft | 4 kts | 155° |
| 2026-04-20 17:21 | 39.85415 | 4.21855 | 282 ft | 6 kts | 125° |
| 2026-04-20 17:21 | 39.85403 | 4.21908 | 281 ft | 7 kts | 64° |
| 2026-04-20 17:21 | 39.85439 | 4.21940 | 282 ft | 7 kts | 7° |
| 2026-04-20 17:21 | 39.85485 | 4.21947 | 283 ft | 6 kts | 3° |
| 2026-04-20 17:22 | 39.85529 | 4.21952 | 285 ft | 6 kts | 7° |
| 2026-04-20 17:22 | 39.85557 | 4.21957 | 285 ft | 6 kts | 9° |
| 2026-04-20 17:22 | 39.85622 | 4.21972 | 287 ft | 14 kts | 8° |
| 2026-04-20 17:22 | 39.85742 | 4.22002 | 293 ft | 20 kts | 12° |
| 2026-04-20 17:23 | 39.85877 | 4.22024 | 295 ft | 20 kts | 9° |
| 2026-04-20 17:23 | 39.86018 | 4.22056 | 295 ft | 22 kts | 9° |
| 2026-04-20 17:23 | 39.86152 | 4.22079 | 293 ft | 15 kts | 13° |
| 2026-04-20 17:23 | 39.86185 | 4.22192 | 289 ft | 16 kts | 98° |
| 2026-04-20 17:24 | 39.86216 | 4.22263 | 287 ft | 6 kts | 18° |
| 2026-04-20 17:24 | 39.86259 | 4.22273 | 287 ft | 6 kts | 10° |
| 2026-04-20 17:24 | 39.86299 | 4.22283 | 292 ft | 6 kts | 11° |
| 2026-04-20 17:24 | 39.86341 | 4.22291 | 287 ft | 6 kts | 9° |
| 2026-04-20 17:25 | 39.86373 | 4.22305 | 292 ft | 3 kts | 47° |
| 2026-04-20 17:25 | 39.86377 | 4.22337 | 286 ft | 5 kts | 94° |
| 2026-04-20 17:25 | 39.86373 | 4.22372 | 285 ft | 1 kts | 99° |
| 2026-04-20 17:25 | 39.86372 | 4.22380 | 285 ft | 1 kts | 99° |
| 2026-04-20 17:26 | 39.86371 | 4.22389 | 285 ft | 1 kts | 98° |
| 2026-04-20 17:26 | 39.86371 | 4.22393 | 285 ft | 0 kts | 98° |